createdAt,value
2022-09-27T00:01:37.605Z,97620.33
2022-09-27T00:04:53.886Z,97618.09
2022-09-27T00:08:10.573Z,97614.61
2022-09-27T00:11:33.179Z,97611.93
2022-09-27T00:14:49.697Z,97612.34
2022-09-27T00:18:05.998Z,97606.84
2022-09-27T00:21:23.212Z,97606.63
2022-09-27T00:24:39.499Z,97607.41
2022-09-27T00:27:55.722Z,97593.98
2022-09-27T00:31:14.902Z,97591.71
2022-09-27T00:34:31.061Z,97590.50
2022-09-27T00:37:46.927Z,97588.08
2022-09-27T00:41:03.170Z,97596.22
2022-09-27T00:45:13.650Z,97585.26
2022-09-27T00:48:34.870Z,97577.71
2022-09-27T00:51:54.648Z,97581.77
2022-09-27T00:55:18.074Z,97577.08
2022-09-27T00:59:08.022Z,97566.98
2022-09-27T01:02:25.644Z,97569.41
2022-09-27T01:05:44.128Z,97557.80
2022-09-27T01:09:00.387Z,97554.94
2022-09-27T01:12:22.694Z,97548.80
2022-09-27T01:15:45.915Z,97546.16
2022-09-27T01:19:13.348Z,97539.83
2022-09-27T01:22:33.613Z,97542.67
2022-09-27T01:32:27.974Z,97530.44
2022-09-27T01:35:53.843Z,97526.99
2022-09-27T01:39:28.923Z,97521.69
2022-09-27T01:43:10.266Z,97523.91
2022-09-27T01:46:32.353Z,97518.22
2022-09-27T01:50:11.440Z,97523.28
2022-09-27T01:53:34.037Z,97515.14
2022-09-27T01:56:56.697Z,97515.14
2022-09-27T02:00:19.802Z,97513.30
2022-09-27T02:03:39.736Z,97509.44
2022-09-27T02:11:32.794Z,97503.34
2022-09-27T02:15:10.565Z,97500.66
2022-09-27T02:18:31.896Z,97501.24
2022-09-27T02:21:54.306Z,97501.07
2022-09-27T02:25:20.261Z,97491.30
2022-09-27T02:28:41.094Z,97493.10
2022-09-27T02:32:00.825Z,97483.97
2022-09-27T02:35:23.468Z,97477.10
2022-09-27T02:38:40.298Z,97479.33
2022-09-27T02:41:59.153Z,97476.25
2022-09-27T02:45:19.984Z,97472.77
2022-09-27T02:48:42.649Z,97480.08
2022-09-27T02:52:05.006Z,97471.95
2022-09-27T02:55:27.911Z,97478.23
2022-09-27T03:02:13.158Z,97466.03
2022-09-27T03:05:32.431Z,97456.26
2022-09-27T03:08:49.659Z,97447.69
2022-09-27T03:12:06.381Z,97450.13
2022-09-27T03:15:23.565Z,97443.99
2022-09-27T03:18:49.270Z,97448.61
2022-09-27T03:22:24.382Z,97447.38
2022-09-27T03:25:40.902Z,97456.47
2022-09-27T03:28:57.399Z,97453.77
2022-09-27T03:32:14.085Z,97457.41
2022-09-27T03:35:35.267Z,97464.33
2022-09-27T03:38:51.706Z,97461.69
2022-09-27T03:42:08.892Z,97454.78
2022-09-27T03:45:26.189Z,97457.41
2022-09-27T03:48:43.446Z,97439.61
2022-09-27T03:51:59.866Z,97428.06
2022-09-27T03:55:18.237Z,97418.80
2022-09-27T04:01:49.971Z,97426.59
2022-09-27T04:05:07.950Z,97432.07
2022-09-27T04:08:24.513Z,97424.16
2022-09-27T04:18:12.890Z,97421.52
2022-09-27T04:21:31.493Z,97421.13
2022-09-27T04:24:47.853Z,97421.52
2022-09-27T04:28:07.051Z,97417.85
2022-09-27T04:31:23.388Z,97411.92
2022-09-27T04:34:55.607Z,97401.97
2022-09-27T04:38:13.040Z,97410.89
2022-09-27T04:41:30.805Z,97412.09
2022-09-27T04:44:48.607Z,97410.28
2022-09-27T04:48:05.008Z,97414.72
2022-09-27T04:51:23.900Z,97421.20
2022-09-27T04:54:41.135Z,97414.09
2022-09-27T04:58:00.030Z,97413.95
2022-09-27T05:01:17.145Z,97414.39
2022-09-27T05:04:45.300Z,97402.77
2022-09-27T05:08:01.831Z,97392.80
2022-09-27T05:11:21.519Z,97389.80
2022-09-27T05:14:55.813Z,97385.55
2022-09-27T05:18:28.720Z,97383.25
2022-09-27T05:22:02.911Z,97383.66
2022-09-27T05:25:20.317Z,97384.42
2022-09-27T05:28:36.776Z,97380.73
2022-09-27T05:31:53.237Z,97380.98
2022-09-27T05:35:10.004Z,97380.79
2022-09-27T05:38:26.345Z,97381.16
2022-09-27T05:41:44.495Z,97381.39
2022-09-27T05:45:00.966Z,97370.47
2022-09-27T05:48:18.510Z,97368.88
2022-09-27T05:51:51.896Z,97369.93
2022-09-27T05:55:08.139Z,97370.36
2022-09-27T05:58:25.969Z,97377.87
2022-09-27T06:01:46.567Z,97371.23
2022-09-27T06:05:20.535Z,97369.83
2022-09-27T06:08:51.406Z,97369.45
2022-09-27T06:12:10.455Z,97365.83
2022-09-27T06:15:26.860Z,97363.83
2022-09-27T06:18:43.851Z,97367.30
2022-09-27T06:22:01.669Z,97376.64
2022-09-27T06:25:21.775Z,97370.95
2022-09-27T06:28:43.546Z,97379.42
2022-09-27T06:32:05.185Z,97388.55
2022-09-27T06:35:40.184Z,97390.63
2022-09-27T06:38:58.383Z,97384.27
2022-09-27T06:42:25.353Z,97387.94
2022-09-27T06:45:44.656Z,97367.94
2022-09-27T06:49:09.009Z,97367.38
2022-09-27T06:52:25.363Z,97367.41
2022-09-27T06:55:42.098Z,97373.08
2022-09-27T06:59:12.325Z,97376.98
2022-09-27T07:02:30.648Z,97375.77
2022-09-27T07:06:13.718Z,97376.18
2022-09-27T07:09:32.155Z,97369.92
2022-09-27T07:12:49.869Z,97365.85
2022-09-27T07:16:07.121Z,97372.38
2022-09-27T07:19:23.525Z,97369.75
2022-09-27T07:22:47.371Z,97370.96
2022-09-27T07:26:05.059Z,97373.84
2022-09-27T07:32:37.780Z,97376.47
2022-09-27T07:35:55.565Z,97365.70
2022-09-27T07:39:13.012Z,97367.72
2022-09-27T07:42:29.502Z,97359.56
2022-09-27T07:45:49.377Z,97367.47
2022-09-27T07:49:13.819Z,97360.34
2022-09-27T07:52:46.176Z,97364.01
2022-09-27T07:56:04.645Z,97366.23
2022-09-27T07:59:22.170Z,97369.86
2022-09-27T08:02:38.658Z,97368.41
2022-09-27T08:05:57.145Z,97360.47
2022-09-27T08:09:17.079Z,97354.74
2022-09-27T08:12:33.976Z,97359.02
2022-09-27T08:15:52.079Z,97350.86
2022-09-27T08:19:09.274Z,97353.06
2022-09-27T08:22:49.669Z,97366.70
2022-09-27T08:26:14.025Z,97354.03
2022-09-27T08:33:03.382Z,97348.78
2022-09-27T08:36:22.296Z,97348.67
2022-09-27T08:39:38.763Z,97349.61
2022-09-27T08:43:01.359Z,97351.34
2022-09-27T08:46:37.463Z,97343.70
2022-09-27T08:49:58.840Z,97347.41
2022-09-27T08:53:23.769Z,97351.67
2022-09-27T08:56:42.086Z,97337.20
2022-09-27T09:00:07.768Z,97338.52
2022-09-27T09:03:28.364Z,97338.22
2022-09-27T09:06:51.815Z,97334.45
2022-09-27T09:10:14.754Z,97337.44
2022-09-27T09:13:45.486Z,97331.06
2022-09-27T09:17:03.709Z,97339.16
2022-09-27T09:20:40.719Z,97329.77
2022-09-27T09:24:23.302Z,97328.13
2022-09-27T09:27:45.810Z,97320.52
2022-09-27T09:31:09.100Z,97318.92
2022-09-27T09:34:29.660Z,97313.20
2022-09-27T09:37:51.015Z,97303.33
2022-09-27T09:41:13.900Z,97301.41
2022-09-27T09:44:34.987Z,97305.17
2022-09-27T09:47:57.599Z,97296.62
2022-09-27T09:51:20.257Z,97288.84
2022-09-27T09:54:41.191Z,97288.47
2022-09-27T09:58:10.854Z,97281.43
2022-09-27T10:01:33.580Z,97269.99
2022-09-27T10:04:49.839Z,97269.90
2022-09-27T10:08:10.076Z,97270.93
2022-09-27T10:11:32.974Z,97263.20
2022-09-27T10:15:13.508Z,97264.33
2022-09-27T10:18:30.459Z,97248.81
2022-09-27T10:21:51.026Z,97250.17
2022-09-27T10:25:10.252Z,97247.66
2022-09-27T10:28:48.303Z,97238.45
2022-09-27T10:32:08.012Z,97234.91
2022-09-27T10:35:45.843Z,97234.72
2022-09-27T10:39:06.031Z,97231.16
2022-09-27T10:42:44.287Z,97227.95
2022-09-27T10:46:14.560Z,97232.09
2022-09-27T10:49:34.627Z,97216.28
2022-09-27T10:52:51.931Z,97228.87
2022-09-27T10:56:12.457Z,97218.99
2022-09-27T10:59:31.389Z,97214.34
2022-09-27T11:02:47.891Z,97205.34
2022-09-27T11:06:06.092Z,97204.69
2022-09-27T11:09:30.998Z,97196.16
2022-09-27T11:12:47.727Z,97195.45
2022-09-27T11:16:17.865Z,97192.27
2022-09-27T11:19:59.928Z,97182.91
2022-09-27T11:23:48.576Z,97187.20
2022-09-27T11:27:16.141Z,97176.11
2022-09-27T11:30:36.934Z,97173.44
2022-09-27T11:34:33.262Z,97174.30
2022-09-27T11:37:55.860Z,97167.62
2022-09-27T11:41:32.553Z,97171.84
2022-09-27T11:48:12.487Z,97164.04
2022-09-27T11:51:55.528Z,97160.57
2022-09-27T11:55:33.110Z,97155.99
2022-09-27T11:58:56.077Z,97155.48
2022-09-27T12:02:21.552Z,97147.19
2022-09-27T12:05:45.004Z,97147.74
2022-09-27T12:09:12.623Z,97141.05
2022-09-27T12:12:33.529Z,97137.57
2022-09-27T12:19:39.367Z,97145.41
2022-09-27T12:23:03.236Z,97129.34
2022-09-27T12:26:35.252Z,97116.75
2022-09-27T12:30:07.384Z,97116.76
2022-09-27T12:33:44.941Z,97105.52
2022-09-27T12:37:08.772Z,97103.92
2022-09-27T12:40:57.694Z,97108.48
2022-09-27T12:44:20.009Z,97107.67
2022-09-27T12:48:01.909Z,97102.31
2022-09-27T12:51:25.928Z,97099.67
2022-09-27T12:55:26.686Z,97105.83
2022-09-27T12:59:13.672Z,97105.55
2022-09-27T13:03:28.740Z,97094.05
2022-09-27T13:07:04.530Z,97088.14
2022-09-27T13:10:50.015Z,97083.61
2022-09-27T13:14:09.027Z,97077.16
2022-09-27T13:18:02.830Z,97076.63
2022-09-27T13:21:55.243Z,97072.07
2022-09-27T13:26:00.421Z,97071.28
2022-09-27T13:29:38.583Z,97072.86
2022-09-27T13:33:44.065Z,97078.21
2022-09-27T13:37:02.066Z,97079.55
2022-09-27T13:40:43.744Z,97080.09
2022-09-27T13:47:35.641Z,97071.23
2022-09-27T13:51:01.885Z,97077.13
2022-09-27T13:54:44.200Z,97068.23
2022-09-27T14:03:11.752Z,97067.16
2022-09-27T14:06:38.332Z,97070.63
2022-09-27T14:10:06.316Z,97074.91
2022-09-27T14:18:11.802Z,97064.84
2022-09-27T14:21:44.200Z,97057.52
2022-09-27T14:25:28.820Z,97052.56
2022-09-27T14:28:55.011Z,97056.97
2022-09-27T14:32:21.159Z,97039.49
2022-09-27T14:35:54.879Z,97040.78
2022-09-27T14:39:19.262Z,97032.70
2022-09-27T14:42:38.188Z,97034.31
2022-09-27T14:45:58.371Z,97046.91
2022-09-27T14:49:31.063Z,97050.97
2022-09-27T14:52:50.765Z,97051.00
2022-09-27T14:56:11.617Z,97055.29
2022-09-27T14:59:33.041Z,97051.83
2022-09-27T15:02:51.593Z,97055.06
2022-09-27T15:06:11.710Z,97045.98
2022-09-27T15:09:32.983Z,97049.16
2022-09-27T15:12:44.998Z,97051.00
2022-09-27T15:16:01.964Z,97053.11
2022-09-27T15:19:27.759Z,97046.91
2022-09-27T15:22:50.686Z,97051.13
2022-09-27T15:26:16.783Z,97053.05
2022-09-27T15:29:35.095Z,97064.78
2022-09-27T15:32:58.409Z,97076.56
2022-09-27T15:36:18.968Z,97085.84
2022-09-27T15:39:41.249Z,97105.21
2022-09-27T15:43:07.336Z,97113.88
2022-09-27T15:46:47.483Z,97103.48
2022-09-27T15:50:03.774Z,97107.36
2022-09-27T15:53:22.637Z,97126.88
2022-09-27T15:56:41.035Z,97122.88
2022-09-27T15:59:57.149Z,97130.18
2022-09-27T16:03:14.865Z,97131.64
2022-09-27T16:06:34.425Z,97138.70
2022-09-27T16:09:52.661Z,97137.98
2022-09-27T16:13:07.449Z,97139.42
2022-09-27T16:16:29.613Z,97137.65
2022-09-27T16:19:45.986Z,97135.21
2022-09-27T16:23:03.380Z,97139.66
2022-09-27T16:26:20.307Z,97135.39
2022-09-27T16:32:57.115Z,97147.16
2022-09-27T16:36:17.812Z,97145.45
2022-09-27T16:39:34.065Z,97151.11
2022-09-27T16:42:50.384Z,97159.45
2022-09-27T16:46:16.413Z,97154.53
2022-09-27T16:49:50.111Z,97161.84
2022-09-27T16:53:07.054Z,97171.34
2022-09-27T16:56:27.624Z,97167.18
2022-09-27T16:59:45.844Z,97164.31
2022-09-27T17:03:02.335Z,97165.80
2022-09-27T17:06:19.390Z,97168.25
2022-09-27T17:09:36.517Z,97172.30
2022-09-27T17:12:52.876Z,97168.50
2022-09-27T17:19:25.442Z,97155.11
2022-09-27T17:22:42.493Z,97166.78
2022-09-27T17:25:59.180Z,97165.64
2022-09-27T17:29:16.775Z,97160.77
2022-09-27T17:32:33.422Z,97164.47
2022-09-27T17:35:50.033Z,97164.61
2022-09-27T17:39:07.878Z,97171.06
2022-09-27T17:42:26.087Z,97177.21
2022-09-27T17:45:44.031Z,97174.31
2022-09-27T17:49:14.733Z,97177.42
2022-09-27T17:52:32.009Z,97185.05
2022-09-27T17:55:48.514Z,97184.25
2022-09-27T17:59:06.646Z,97185.88
2022-09-27T18:02:23.226Z,97192.81
2022-09-27T18:05:40.178Z,97191.44
2022-09-27T18:08:56.694Z,97198.83
2022-09-27T18:12:14.860Z,97201.13
2022-09-27T18:15:31.813Z,97197.89
2022-09-27T18:18:50.480Z,97208.52
2022-09-27T18:22:08.152Z,97210.14
2022-09-27T18:25:26.187Z,97213.84
2022-09-27T18:28:43.047Z,97211.42
2022-09-27T18:35:16.838Z,97215.00
2022-09-27T18:38:33.458Z,97218.48
2022-09-27T18:41:50.719Z,97218.13
2022-09-27T18:48:23.097Z,97225.28
2022-09-27T18:51:41.815Z,97224.13
2022-09-27T18:55:00.373Z,97229.45
2022-09-27T18:58:17.640Z,97231.98
2022-09-27T19:01:36.603Z,97239.13
2022-09-27T19:04:53.150Z,97239.13
2022-09-27T19:08:09.840Z,97242.70
2022-09-27T19:11:27.238Z,97243.30
2022-09-27T19:18:02.254Z,97239.58
2022-09-27T19:21:23.635Z,97241.44
2022-09-27T19:24:40.323Z,97245.13
2022-09-27T19:27:59.184Z,97246.83
2022-09-27T19:34:30.684Z,97251.31
2022-09-27T19:37:47.347Z,97250.39
2022-09-27T19:41:04.968Z,97247.94
2022-09-27T19:44:21.509Z,97243.53
2022-09-27T19:47:45.639Z,97244.67
2022-09-27T19:51:09.205Z,97239.47
2022-09-27T19:54:25.719Z,97239.55
2022-09-27T19:57:42.497Z,97244.52
2022-09-27T20:04:16.402Z,97243.80
2022-09-27T20:07:34.426Z,97244.23
2022-09-27T20:10:52.628Z,97244.23
2022-09-27T20:14:08.951Z,97240.78
2022-09-27T20:17:25.175Z,97238.13
2022-09-27T20:20:41.583Z,97230.96
2022-09-27T20:24:02.733Z,97235.34
2022-09-27T20:27:19.173Z,97240.28
2022-09-27T20:30:35.983Z,97234.38
2022-09-27T20:33:53.063Z,97232.19
2022-09-27T20:37:09.457Z,97228.94
2022-09-27T20:40:26.414Z,97236.91
2022-09-27T20:43:43.001Z,97232.85
2022-09-27T20:47:11.539Z,97233.08
2022-09-27T20:50:28.129Z,97232.26
2022-09-27T20:53:47.714Z,97236.17
2022-09-27T20:57:03.954Z,97231.23
2022-09-27T21:03:35.746Z,97235.50
2022-09-27T21:06:53.398Z,97237.80
2022-09-27T21:10:10.050Z,97249.89
2022-09-27T21:13:29.641Z,97243.20
2022-09-27T21:16:45.907Z,97256.59
2022-09-27T21:20:02.262Z,97256.59
2022-09-27T21:23:18.415Z,97251.89
2022-09-27T21:26:37.320Z,97252.92
2022-09-27T21:29:53.720Z,97249.66
2022-09-27T21:33:10.079Z,97243.56
2022-09-27T21:36:30.706Z,97239.05
2022-09-27T21:39:47.269Z,97236.40
2022-09-27T21:43:03.404Z,97232.95
2022-09-27T21:46:24.019Z,97232.48
2022-09-27T21:49:40.310Z,97226.95
2022-09-27T21:52:58.232Z,97222.23
2022-09-27T21:56:16.612Z,97224.23
2022-09-27T21:59:32.868Z,97221.21
2022-09-27T22:02:49.102Z,97219.45
2022-09-27T22:06:06.403Z,97220.34
2022-09-27T22:09:25.496Z,97223.23
2022-09-27T22:12:43.785Z,97220.34
2022-09-27T22:16:00.390Z,97216.52
2022-09-27T22:19:19.738Z,97224.12
2022-09-27T22:22:36.228Z,97229.85
2022-09-27T22:25:52.419Z,97229.05
2022-09-27T22:29:11.941Z,97235.39
2022-09-27T22:32:28.033Z,97225.80
2022-09-27T22:35:44.862Z,97228.91
2022-09-27T22:39:02.056Z,97242.75
2022-09-27T22:42:19.412Z,97238.47
2022-09-27T22:45:35.557Z,97245.63
2022-09-27T22:48:52.054Z,97239.16
2022-09-27T22:52:08.519Z,97239.35
2022-09-27T22:55:24.946Z,97233.84
2022-09-27T22:58:43.100Z,97235.11
2022-09-27T23:05:16.514Z,97236.70
2022-09-27T23:08:32.610Z,97222.41
2022-09-27T23:11:48.822Z,97220.13
2022-09-27T23:15:05.138Z,97209.98
2022-09-27T23:18:21.215Z,97207.75
2022-09-27T23:21:38.771Z,97222.27
2022-09-27T23:24:54.793Z,97220.88
2022-09-27T23:28:11.115Z,97222.50
2022-09-27T23:31:30.094Z,97221.70
2022-09-27T23:34:47.169Z,97222.92
2022-09-27T23:38:03.662Z,97228.45
2022-09-27T23:41:20.888Z,97242.60
2022-09-27T23:44:37.473Z,97238.32
2022-09-27T23:47:54.819Z,97248.73
2022-09-27T23:51:12.210Z,97244.59
2022-09-27T23:54:28.420Z,97252.92
2022-09-27T23:57:44.407Z,97246.59
